Terminal Aerodrome Forecast
Issued by NWS

Home | Current Version | Previous Version | Text Only | Print | Product List | Glossary On
Versions: 1 2 3 4 5 6 7 8 9 10 11 12 13 14 15 16 17 18 19 20 21 22 23 24 25 26
000
FTUS45 KPSR 200909 AAA
TAFPHX
TAF AMD
KPHX 200909Z 2009/2112 10006KT P6SM BKN250
     FM201600 16008KT P6SM FEW250
     FM201900 25013KT P6SM FEW250
     FM210900 11006KT P6SM FEW250=

USA.gov is the U.S. government's official web portal to all federal, state and local government web resources and services.